Forside
METAR-TAF:

METAR-TAF

Lufthavne :

Kinloss, Skotland

Breddekreds: 57-39N, længdekreds: 003-34W, højde: 7 m

Aktuelle vejr

Denne rapport blev lavet for 41 minutter siden, kl. 12:50 UTC
Vind 11 kt fra vest
Temperatur 9°C
Fugtighed 66%
Tryk 1032 hPa
Sigt 10 km eller mere
Nogle få skyer i en højde af 2000 ft
Brudte skyer i en højde af 4600 ft

METAR: EGQK 311250Z 28011KT 9999 FEW020 BKN046 09/03 Q1032 BLU

Tid: 14:31 (13:31 UTC)

Vejrudsigter

Denne rapport blev lavet for 2 timer og 56 minutter siden, kl. 10:35 UTC
Foreløbig gælder fra 31 på 12 UTC til 01 på 06 UTC
Vind 12 kt fra vest
Sigt 10 km eller mere
Nogle få skyer i en højde af 2000 ft
Brudte skyer i en højde af 4500 ft
Sandsynlighed 40% :
Midlertidig
fra 31 på 12 UTC til 01 på 06 UTC
Sigt: 5000 m
Spredte skyer i en højde af 2000 ft
let regnbyger

TAF: EGQK 311035Z 3112/0106 26012KT 9999 FEW020 BKN045 PROB40 TEMPO 3112/0106 5000 -SHRA SCT020

Vejrobservationer og prognoser fra mere end 4000 lufthavne (METAR og TAF).

De gule og røde prikker repræsenterer de meteorologiske stationer.

Flyt musen over at se navnet på stationen.

Så klik over at se vejr observationer og prognoser.

At skifte det kort: Klik på de grønne knapper med et sort kors for at zoome ind; på den grønne knap med en bindestreg for at zoome ud; eller på de grønne pile for tilstødende kort.


METAR-TAF: